Time;durP1;ratioP1;P1;durP2;ratioP2;P2;SDS_P1;SDS_P2;PMS_P1;PMS_P2;Temp;Humidity;BMP_temperature;BMP_pressure;BME280_temperature;BME280_humidity;BME280_pressure;Samples;Min_cycle;Max_cycle;Signal;HPM_P1;HPM_P2
2024/01/11 00:00:56;;;;;;;40.03;36.40;;;3.50;13.50;;;;;;5020332;28;20426;-82
2024/01/11 00:03:24;;;;;;;41.20;37.67;;;3.70;13.20;;;;;;5019442;28;20577;-82
2024/01/11 00:06:01;;;;;;;38.97;35.67;;;3.70;13.00;;;;;;5003331;28;20455;-82
2024/01/11 00:08:26;;;;;;;38.97;35.57;;;3.70;13.00;;;;;;5004811;28;20439;-82
2024/01/11 00:10:57;;;;;;;40.37;36.73;;;3.70;12.90;;;;;;4988503;28;20411;-82
2024/01/11 00:13:27;;;;;;;41.10;37.63;;;3.70;12.90;;;;;;5020445;28;20422;-82
2024/01/11 00:15:58;;;;;;;41.83;38.17;;;3.70;12.90;;;;;;5024777;28;20430;-82
2024/01/11 00:18:24;;;;;;;41.20;37.30;;;3.70;13.00;;;;;;5023706;28;20471;-83
2024/01/11 00:20:51;;;;;;;41.73;38.03;;;3.70;13.00;;;;;;5021605;28;20509;-82
2024/01/11 00:23:18;;;;;;;39.90;36.50;;;3.70;13.00;;;;;;5019381;28;20687;-82
2024/01/11 00:25:48;;;;;;;38.70;35.30;;;3.80;12.90;;;;;;5021243;28;20430;-82
2024/01/11 00:28:14;;;;;;;39.20;35.80;;;3.70;12.80;;;;;;5020822;28;20444;-82
2024/01/11 00:30:40;;;;;;;39.90;36.40;;;3.70;12.90;;;;;;5020590;28;20482;-82
2024/01/11 00:33:14;;;;;;;39.30;35.70;;;3.70;13.20;;;;;;5003740;28;20200;-83
2024/01/11 00:35:39;;;;;;;41.57;37.93;;;3.70;13.20;;;;;;5022414;28;20435;-82
2024/01/11 00:38:05;;;;;;;39.20;35.80;;;3.60;13.20;;;;;;5009521;28;20846;-82
2024/01/11 00:40:31;;;;;;;40.30;36.80;;;3.70;13.10;;;;;;5025964;28;20423;-83
2024/01/11 00:42:56;;;;;;;41.90;38.20;;;3.40;13.40;;;;;;5022371;28;20176;-83
2024/01/11 00:45:22;;;;;;;40.33;37.00;;;3.20;14.00;;;;;;5042275;28;20173;-82
2024/01/11 00:47:47;;;;;;;39.83;36.50;;;2.90;14.70;;;;;;5022847;28;20196;-82
2024/01/11 00:50:13;;;;;;;41.17;37.60;;;2.40;15.50;;;;;;5019995;28;20542;-82
2024/01/11 00:52:38;;;;;;;41.40;37.80;;;2.00;16.60;;;;;;5018886;28;20620;-82
2024/01/11 00:55:04;;;;;;;40.17;36.67;;;1.70;17.10;;;;;;5020120;28;20173;-82
2024/01/11 00:57:30;;;;;;;40.53;36.93;;;1.50;17.70;;;;;;5037086;28;20250;-82
2024/01/11 00:59:55;;;;;;;38.93;35.83;;;1.30;18.50;;;;;;5019011;28;20815;-82
2024/01/11 01:02:21;;;;;;;40.30;36.80;;;1.30;18.50;;;;;;5019009;28;20202;-82
2024/01/11 01:04:46;;;;;;;42.33;38.37;;;1.40;18.60;;;;;;5019590;28;20176;-81
2024/01/11 01:07:12;;;;;;;39.20;35.77;;;1.70;18.70;;;;;;5018569;28;20188;-82
2024/01/11 01:09:38;;;;;;;39.80;36.30;;;2.10;17.90;;;;;;5038566;28;20237;-81
2024/01/11 01:12:05;;;;;;;40.67;37.07;;;2.50;17.10;;;;;;5038768;28;20180;-81
2024/01/11 01:14:30;;;;;;;38.63;35.10;;;2.70;16.40;;;;;;5055888;28;20406;-84
2024/01/11 01:16:56;;;;;;;42.33;38.50;;;2.90;15.80;;;;;;5049638;28;20429;-81
2024/01/11 01:19:21;;;;;;;41.20;37.67;;;2.90;15.40;;;;;;5040157;28;20203;-83
2024/01/11 01:21:47;;;;;;;43.03;39.40;;;3.00;15.20;;;;;;5039305;28;20210;-84
2024/01/11 01:24:12;;;;;;;42.00;38.13;;;3.20;14.90;;;;;;5039959;28;20222;-84
2024/01/11 01:26:38;;;;;;;39.83;36.23;;;3.30;14.60;;;;;;5040137;28;20187;-85
2024/01/11 01:29:05;;;;;;;40.10;36.70;;;3.30;14.30;;;;;;5057047;28;20262;-81
2024/01/11 01:31:37;;;;;;;40.03;36.30;;;3.10;14.50;;;;;;5038702;28;20563;-81
2024/01/11 01:34:03;;;;;;;40.23;36.50;;;2.30;15.90;;;;;;5039378;28;21007;-81
2024/01/11 01:36:28;;;;;;;38.60;35.30;;;1.80;17.10;;;;;;5038917;28;20419;-80
2024/01/11 01:38:54;;;;;;;40.93;37.03;;;1.40;19.10;;;;;;5056920;28;20458;-83
2024/01/11 01:41:19;;;;;;;38.07;34.87;;;1.40;18.60;;;;;;5038763;28;20176;-81
2024/01/11 01:43:45;;;;;;;40.73;36.90;;;1.60;18.60;;;;;;5038017;28;20694;-82
2024/01/11 01:46:11;;;;;;;40.77;37.07;;;2.00;17.80;;;;;;5038329;28;20322;-81
2024/01/11 01:48:37;;;;;;;40.47;36.90;;;2.30;17.10;;;;;;5039137;28;20226;-81
2024/01/11 01:51:05;;;;;;;41.17;37.47;;;2.60;16.40;;;;;;5022351;28;20457;-82
2024/01/11 01:53:31;;;;;;;41.17;37.50;;;2.70;15.80;;;;;;5038872;28;20410;-81
2024/01/11 01:55:56;;;;;;;42.47;38.33;;;2.90;15.50;;;;;;5038652;28;20710;-82
2024/01/11 01:58:22;;;;;;;47.07;42.63;;;3.00;15.00;;;;;;5038676;28;20216;-82
2024/01/11 02:00:50;;;;;;;43.83;39.63;;;3.20;14.70;;;;;;5038833;28;20262;-82
2024/01/11 02:03:16;;;;;;;45.43;41.13;;;3.20;14.30;;;;;;5056473;28;20414;-83
2024/01/11 02:05:42;;;;;;;38.40;35.17;;;3.20;14.30;;;;;;5039110;28;20492;-83
2024/01/11 02:08:12;;;;;;;41.90;38.23;;;3.30;14.00;;;;;;5038839;28;20782;-83
2024/01/11 02:10:37;;;;;;;46.23;41.80;;;3.30;13.80;;;;;;5041001;28;20419;-82
2024/01/11 02:13:04;;;;;;;44.83;40.43;;;3.40;13.70;;;;;;5037593;28;20791;-82
2024/01/11 02:15:30;;;;;;;39.37;36.07;;;3.40;13.80;;;;;;5057049;28;20255;-83
2024/01/11 02:17:55;;;;;;;37.67;34.47;;;3.10;14.40;;;;;;5056558;28;20561;-82
2024/01/11 02:20:21;;;;;;;41.00;37.10;;;3.00;14.70;;;;;;5055511;28;20930;-82
2024/01/11 02:22:52;;;;;;;38.23;34.93;;;3.10;14.40;;;;;;5037275;28;20176;-82
2024/01/11 02:25:18;;;;;;;37.10;33.90;;;3.00;14.20;;;;;;5056115;28;20211;-82
2024/01/11 02:27:48;;;;;;;39.27;35.50;;;2.70;14.80;;;;;;5055884;28;20421;-83
2024/01/11 02:30:14;;;;;;;40.63;37.10;;;2.50;16.00;;;;;;5038401;28;20199;-83
2024/01/11 02:32:40;;;;;;;38.83;35.53;;;2.60;15.50;;;;;;5037949;28;20976;-82
2024/01/11 02:35:06;;;;;;;38.57;35.20;;;2.70;15.00;;;;;;5037663;28;20457;-82
2024/01/11 02:37:32;;;;;;;42.40;38.73;;;2.90;14.90;;;;;;5038393;28;20493;-81
2024/01/11 02:39:57;;;;;;;40.40;36.70;;;3.00;14.40;;;;;;5056435;28;20426;-82
2024/01/11 02:42:23;;;;;;;39.40;36.10;;;3.10;14.10;;;;;;5037454;28;20678;-82
2024/01/11 02:44:48;;;;;;;41.07;37.67;;;3.30;13.90;;;;;;5038297;28;20179;-81
2024/01/11 02:47:14;;;;;;;41.67;38.03;;;3.20;13.90;;;;;;5055840;28;20180;-82
2024/01/11 02:49:39;;;;;;;42.27;38.37;;;3.30;13.80;;;;;;5055083;28;20204;-82
2024/01/11 02:52:05;;;;;;;39.53;36.20;;;3.20;13.80;;;;;;5037695;28;20798;-82
2024/01/11 02:54:31;;;;;;;41.20;37.60;;;3.20;13.80;;;;;;5056050;28;20187;-83
2024/01/11 02:56:57;;;;;;;41.13;37.40;;;3.20;13.80;;;;;;5055864;28;20202;-82
2024/01/11 02:59:23;;;;;;;41.77;37.83;;;3.20;13.60;;;;;;5040830;28;20216;-82
2024/01/11 03:01:49;;;;;;;41.73;37.77;;;3.20;13.70;;;;;;5059097;28;20415;-82
2024/01/11 03:04:15;;;;;;;41.63;38.20;;;3.20;13.60;;;;;;5068630;28;20494;-82
2024/01/11 03:06:40;;;;;;;39.80;36.40;;;3.00;14.30;;;;;;5059750;28;20268;-82
2024/01/11 03:09:06;;;;;;;39.73;36.30;;;3.00;14.30;;;;;;5042170;28;20221;-83
2024/01/11 03:11:31;;;;;;;40.63;37.20;;;3.00;14.20;;;;;;5059821;28;20248;-82
2024/01/11 03:13:57;;;;;;;40.00;36.60;;;3.10;14.00;;;;;;5060241;28;20538;-82
2024/01/11 03:16:22;;;;;;;44.47;40.50;;;3.10;13.80;;;;;;5063173;28;20176;-82
2024/01/11 03:18:48;;;;;;;40.93;37.33;;;3.10;14.00;;;;;;5061005;28;20216;-83
2024/01/11 03:21:14;;;;;;;39.37;35.97;;;3.00;14.30;;;;;;5041368;28;20262;-82
2024/01/11 03:23:39;;;;;;;41.77;38.30;;;3.00;14.30;;;;;;5040634;28;20685;-82
2024/01/11 03:26:21;;;;;;;39.80;36.40;;;3.10;13.90;;;;;;5058588;28;20176;-82
2024/01/11 03:28:46;;;;;;;42.37;38.63;;;3.00;14.20;;;;;;5041041;28;20902;-82
2024/01/11 03:31:12;;;;;;;42.77;39.07;;;2.70;14.50;;;;;;5041748;28;20443;-82
2024/01/11 03:33:37;;;;;;;42.80;39.00;;;2.40;15.30;;;;;;5040824;28;20186;-82
2024/01/11 03:36:08;;;;;;;42.53;38.93;;;2.30;16.50;;;;;;5058210;28;20172;-81
2024/01/11 03:38:33;;;;;;;40.97;37.47;;;2.30;16.30;;;;;;5040836;28;20298;-82
2024/01/11 03:40:59;;;;;;;39.93;36.63;;;2.30;16.20;;;;;;5058459;28;20501;-82
2024/01/11 03:43:24;;;;;;;43.20;39.40;;;2.40;16.00;;;;;;5040258;28;20168;-81
2024/01/11 03:45:50;;;;;;;42.60;39.00;;;2.50;16.10;;;;;;5041454;28;20164;-82
2024/01/11 03:48:15;;;;;;;47.00;42.40;;;2.40;16.10;;;;;;5041202;28;20192;-83
2024/01/11 03:50:41;;;;;;;44.90;40.80;;;2.60;15.70;;;;;;5040679;28;20587;-83
2024/01/11 03:53:07;;;;;;;42.33;38.53;;;2.70;15.20;;;;;;5040670;28;20167;-83
2024/01/11 03:55:33;;;;;;;43.03;39.50;;;2.90;14.80;;;;;;5042062;28;20179;-83
2024/01/11 03:57:58;;;;;;;40.50;37.00;;;3.00;14.80;;;;;;5040645;28;20473;-83
2024/01/11 04:00:24;;;;;;;44.80;41.20;;;2.90;14.70;;;;;;5041216;28;20172;-82
2024/01/11 04:02:50;;;;;;;44.77;41.07;;;2.90;14.90;;;;;;5059341;28;20575;-83
2024/01/11 04:05:15;;;;;;;42.13;38.60;;;2.90;14.60;;;;;;5042235;28;20168;-83
2024/01/11 04:07:41;;;;;;;45.77;41.77;;;3.00;14.50;;;;;;5048391;28;20179;-81
2024/01/11 04:10:09;;;;;;;46.07;42.17;;;3.10;14.30;;;;;;5040447;28;20462;-83
2024/01/11 04:12:36;;;;;;;43.77;39.97;;;3.10;14.00;;;;;;5039993;28;20222;-83
2024/01/11 04:15:02;;;;;;;47.97;43.73;;;3.10;13.90;;;;;;5040502;28;20430;-83
2024/01/11 04:17:27;;;;;;;42.50;38.87;;;3.20;14.30;;;;;;5041162;28;20462;-84
2024/01/11 04:19:53;;;;;;;43.73;39.80;;;3.00;14.10;;;;;;5058730;28;20480;-83
2024/01/11 04:22:18;;;;;;;39.90;36.47;;;2.50;14.60;;;;;;5040392;28;20263;-83
2024/01/11 04:24:44;;;;;;;42.13;38.57;;;2.10;15.80;;;;;;5040995;28;20180;-81
2024/01/11 04:27:09;;;;;;;42.30;38.60;;;1.80;16.60;;;;;;5040425;28;20172;-81
2024/01/11 04:29:35;;;;;;;42.37;38.60;;;1.60;16.90;;;;;;5061211;22;20249;-79
2024/01/11 04:32:01;;;;;;;43.23;39.20;;;1.40;17.40;;;;;;5057070;28;20601;-79
2024/01/11 04:34:28;;;;;;;43.53;39.73;;;1.30;18.10;;;;;;5054068;28;20514;-80
2024/01/11 04:36:53;;;;;;;42.87;39.27;;;1.40;17.90;;;;;;5056186;28;20287;-79
2024/01/11 04:39:19;;;;;;;42.87;38.97;;;1.40;18.20;;;;;;5060715;28;20485;-79
2024/01/11 04:41:45;;;;;;;45.43;41.23;;;1.40;17.80;;;;;;5051045;28;20210;-79
2024/01/11 04:44:10;;;;;;;40.53;37.00;;;1.40;18.00;;;;;;5051467;28;20203;-78
2024/01/11 04:46:41;;;;;;;40.40;37.20;;;1.40;17.60;;;;;;5058092;28;20187;-79
2024/01/11 04:49:12;;;;;;;43.73;39.93;;;1.30;18.00;;;;;;5059375;28;20198;-79
2024/01/11 04:51:39;;;;;;;41.83;38.40;;;1.50;17.70;;;;;;5041578;28;20442;-79
2024/01/11 04:54:05;;;;;;;43.17;39.47;;;1.70;17.70;;;;;;5057619;28;20434;-78
2024/01/11 04:56:30;;;;;;;42.90;39.20;;;1.70;17.10;;;;;;5060122;28;20525;-78
2024/01/11 04:58:56;;;;;;;41.27;37.70;;;1.60;17.10;;;;;;5044783;28;20838;-78
2024/01/11 05:01:22;;;;;;;39.77;36.30;;;1.60;17.50;;;;;;5066645;28;20563;-79
2024/01/11 05:03:51;;;;;;;43.00;39.20;;;1.60;17.70;;;;;;5063912;28;20241;-79
2024/01/11 05:06:27;;;;;;;44.23;40.53;;;1.90;17.20;;;;;;5059857;28;20438;-78
2024/01/11 05:08:55;;;;;;;44.83;40.83;;;2.20;16.80;;;;;;5053799;28;20524;-77
2024/01/11 05:11:26;;;;;;;43.37;39.87;;;1.90;17.10;;;;;;5056594;28;20992;-79
2024/01/11 05:13:56;;;;;;;42.70;39.20;;;2.10;17.30;;;;;;5063229;28;21003;-78
2024/01/11 05:16:30;;;;;;;40.30;36.97;;;2.40;16.60;;;;;;5057094;28;21010;-79
2024/01/11 05:19:04;;;;;;;45.60;41.53;;;2.70;15.70;;;;;;5057289;28;20473;-79
2024/01/11 05:21:33;;;;;;;41.67;38.07;;;2.90;15.10;;;;;;5051125;28;20435;-81
2024/01/11 05:24:03;;;;;;;43.37;39.57;;;3.10;14.60;;;;;;5053498;28;20648;-78
2024/01/11 05:26:28;;;;;;;41.80;38.30;;;3.10;15.40;;;;;;5055064;28;20433;-79
2024/01/11 05:28:54;;;;;;;41.03;37.43;;;3.20;14.30;;;;;;5054640;28;20988;-78
2024/01/11 05:31:19;;;;;;;37.07;34.07;;;3.20;13.90;;;;;;5067349;28;20176;-79
2024/01/11 05:33:46;;;;;;;42.40;38.60;;;3.30;13.70;;;;;;5066609;28;20245;-79
2024/01/11 05:36:12;;;;;;;42.50;38.83;;;3.30;13.60;;;;;;5061175;28;20187;-79
2024/01/11 05:38:39;;;;;;;42.37;38.50;;;3.30;13.40;;;;;;5061067;28;20476;-76
2024/01/11 05:41:05;;;;;;;41.90;38.20;;;3.10;13.70;;;;;;5077851;28;20183;-78
2024/01/11 05:43:30;;;;;;;42.57;38.77;;;2.90;13.60;;;;;;5076186;28;20417;-79
2024/01/11 05:45:56;;;;;;;39.67;36.33;;;2.70;14.80;;;;;;5065302;28;20183;-77
2024/01/11 05:48:21;;;;;;;41.97;38.43;;;2.60;14.90;;;;;;5075253;28;20184;-78
2024/01/11 05:50:47;;;;;;;40.03;36.77;;;2.70;14.90;;;;;;5054257;28;20228;-80
2024/01/11 05:53:22;;;;;;;43.33;39.63;;;2.90;14.70;;;;;;5059240;28;20186;-80
2024/01/11 05:55:51;;;;;;;41.03;37.53;;;2.90;14.50;;;;;;5058722;28;20189;-80
2024/01/11 05:58:19;;;;;;;43.67;40.17;;;2.90;14.40;;;;;;5051754;28;20548;-79
2024/01/11 06:01:04;;;;;;;42.73;38.97;;;2.90;14.20;;;;;;5059574;28;20425;-78
2024/01/11 06:03:33;;;;;;;43.00;39.13;;;2.80;14.30;;;;;;5063301;28;20429;-79
2024/01/11 06:06:01;;;;;;;43.00;39.30;;;2.80;14.30;;;;;;5054860;28;20426;-81
2024/01/11 06:08:28;;;;;;;45.00;41.30;;;2.80;14.20;;;;;;5059428;28;20952;-81
2024/01/11 06:11:04;;;;;;;45.57;41.70;;;2.70;14.20;;;;;;5057485;28;20559;-81
2024/01/11 06:13:30;;;;;;;73.07;66.07;;;2.70;14.20;;;;;;5052436;28;20429;-79
2024/01/11 06:15:58;;;;;;;43.60;39.67;;;2.80;14.20;;;;;;5034284;28;20453;-83
2024/01/11 06:18:24;;;;;;;42.57;38.87;;;2.70;14.20;;;;;;5029769;28;20229;-81
2024/01/11 06:20:52;;;;;;;43.33;39.83;;;2.70;14.30;;;;;;5051940;28;20431;-83
2024/01/11 06:23:49;;;;;;;48.73;44.37;;;2.70;14.40;;;;;;5034127;28;20443;-82
2024/01/11 06:26:20;;;;;;;45.90;42.17;;;2.70;14.30;;;;;;5036389;28;20462;-82
2024/01/11 06:28:49;;;;;;;52.03;47.67;;;2.70;14.50;;;;;;5047395;28;20522;-81
2024/01/11 06:31:18;;;;;;;44.47;40.63;;;2.70;14.40;;;;;;5061829;28;20979;-80
2024/01/11 06:33:52;;;;;;;45.97;42.07;;;2.80;14.50;;;;;;5069487;28;20431;-82
2024/01/11 06:36:18;;;;;;;43.17;39.30;;;2.70;14.10;;;;;;5034817;28;20528;-83
2024/01/11 06:39:06;;;;;;;44.77;40.80;;;2.10;15.60;;;;;;5057947;28;20563;-82
2024/01/11 06:41:32;;;;;;;44.67;40.63;;;2.00;16.50;;;;;;5058016;28;20183;-81
2024/01/11 06:44:12;;;;;;;43.23;39.83;;;2.10;16.00;;;;;;5059919;28;20448;-83
2024/01/11 06:46:43;;;;;;;41.47;37.80;;;2.40;15.50;;;;;;5058101;28;20175;-81
2024/01/11 06:49:09;;;;;;;43.20;39.00;;;2.50;15.20;;;;;;5042497;28;20824;-79
2024/01/11 06:51:34;;;;;;;45.57;41.57;;;2.50;15.00;;;;;;5047914;28;20441;-81
2024/01/11 06:54:01;;;;;;;44.40;40.50;;;2.60;15.00;;;;;;5056548;28;20180;-81
2024/01/11 06:57:16;;;;;;;46.87;42.53;;;2.60;14.80;;;;;;5067245;28;20175;-81
2024/01/11 06:59:46;;;;;;;44.20;40.40;;;2.70;14.60;;;;;;5054553;28;20466;-81
2024/01/11 07:02:17;;;;;;;44.83;40.90;;;2.70;14.40;;;;;;5040625;28;21039;-83
2024/01/11 07:04:47;;;;;;;42.80;39.20;;;2.80;14.40;;;;;;5068044;28;20425;-81
2024/01/11 07:07:28;;;;;;;44.83;40.83;;;2.70;14.30;;;;;;5060831;28;20454;-80
2024/01/11 07:09:55;;;;;;;44.17;40.27;;;2.80;14.30;;;;;;5040021;28;20473;-80
2024/01/11 07:12:21;;;;;;;43.37;39.67;;;2.80;14.40;;;;;;5072134;28;20437;-80
2024/01/11 07:14:46;;;;;;;45.77;41.67;;;2.80;14.50;;;;;;5040893;28;20430;-83
2024/01/11 07:17:27;;;;;;;45.63;41.83;;;2.80;14.40;;;;;;5057356;28;20234;-82
2024/01/11 07:19:52;;;;;;;42.70;39.07;;;2.80;14.30;;;;;;5060363;28;20290;-81
2024/01/11 07:22:18;;;;;;;42.40;38.90;;;2.80;14.80;;;;;;5054452;28;20461;-80
2024/01/11 07:24:50;;;;;;;43.47;39.63;;;2.70;14.40;;;;;;5061118;28;20702;-81
2024/01/11 07:27:15;;;;;;;43.30;39.70;;;2.60;15.10;;;;;;5055577;28;20791;-79
2024/01/11 07:29:41;;;;;;;44.67;40.70;;;2.60;14.90;;;;;;5056882;28;20456;-81
2024/01/11 07:32:08;;;;;;;42.50;38.83;;;2.70;15.10;;;;;;5083613;28;20226;-77
2024/01/11 07:34:36;;;;;;;44.90;41.00;;;2.80;14.80;;;;;;5089932;28;20248;-79
2024/01/11 07:37:02;;;;;;;45.93;41.83;;;2.80;14.70;;;;;;5087075;28;20438;-80
2024/01/11 07:39:27;;;;;;;42.43;38.70;;;2.80;14.70;;;;;;5063884;28;21062;-81
2024/01/11 07:41:53;;;;;;;45.17;41.17;;;2.80;14.60;;;;;;5059315;28;20572;-81
2024/01/11 07:44:20;;;;;;;46.50;42.30;;;2.70;15.10;;;;;;5048009;28;20188;-80
2024/01/11 07:46:45;;;;;;;42.43;38.90;;;2.80;14.70;;;;;;5051838;28;20195;-81
2024/01/11 07:49:15;;;;;;;44.07;40.40;;;2.80;14.60;;;;;;5058955;28;20451;-80
2024/01/11 07:51:46;;;;;;;45.20;41.50;;;2.60;14.90;;;;;;5044412;28;20184;-81
2024/01/11 07:54:12;;;;;;;45.47;41.37;;;2.00;16.10;;;;;;5022071;28;20437;-80
2024/01/11 07:56:37;;;;;;;46.60;42.50;;;2.10;16.50;;;;;;5039546;28;20430;-79
2024/01/11 07:59:04;;;;;;;44.03;40.03;;;2.20;16.10;;;;;;5068316;28;20470;-80
2024/01/11 08:01:29;;;;;;;44.33;40.70;;;2.20;16.00;;;;;;5063726;28;20259;-80
2024/01/11 08:03:55;;;;;;;46.00;41.70;;;2.20;15.80;;;;;;5069946;28;20454;-81
2024/01/11 08:06:20;;;;;;;45.30;41.57;;;2.30;15.80;;;;;;5040889;28;20172;-80
2024/01/11 08:08:51;;;;;;;43.03;39.13;;;2.40;15.80;;;;;;5061083;28;20195;-80
2024/01/11 08:11:17;;;;;;;45.47;41.47;;;2.50;15.50;;;;;;5058131;28;20183;-81
2024/01/11 08:13:42;;;;;;;44.60;40.60;;;2.50;15.30;;;;;;5054478;28;20429;-80
2024/01/11 08:16:09;;;;;;;44.27;40.37;;;2.40;15.30;;;;;;5068471;28;20419;-78
2024/01/11 08:18:35;;;;;;;44.70;41.07;;;2.30;16.00;;;;;;5056476;28;20723;-79
2024/01/11 08:21:00;;;;;;;43.33;39.63;;;2.30;16.30;;;;;;5056284;28;20428;-78
2024/01/11 08:23:28;;;;;;;43.93;40.20;;;2.30;18.60;;;;;;5055348;28;20180;-80
2024/01/11 08:25:54;;;;;;;44.30;40.40;;;2.40;18.30;;;;;;5059327;28;20211;-82
2024/01/11 08:28:20;;;;;;;36.03;33.13;;;2.50;18.40;;;;;;5046467;28;20777;-80
2024/01/11 08:31:45;;;;;;;42.67;38.80;;;2.70;18.20;;;;;;5055410;28;20914;-81
2024/01/11 08:34:31;;;;;;;43.73;39.90;;;2.70;15.50;;;;;;4977835;28;20811;-80
2024/01/11 08:36:57;;;;;;;43.03;39.33;;;2.50;15.60;;;;;;5025491;28;20438;-81
2024/01/11 08:39:31;;;;;;;44.80;40.80;;;2.50;15.20;;;;;;5039013;28;20451;-80
2024/01/11 08:41:57;;;;;;;42.30;38.70;;;2.60;15.50;;;;;;5058070;28;20186;-80
2024/01/11 08:44:29;;;;;;;44.93;41.07;;;2.70;14.70;;;;;;5057717;28;20414;-82
2024/01/11 08:46:57;;;;;;;42.20;38.43;;;2.60;14.90;;;;;;5040184;28;20482;-81
2024/01/11 08:49:23;;;;;;;42.20;38.47;;;2.60;14.90;;;;;;5039082;28;20445;-79
2024/01/11 08:51:48;;;;;;;44.13;40.13;;;2.50;15.20;;;;;;5057346;28;20910;-80
2024/01/11 08:54:16;;;;;;;53.43;47.73;;;2.50;15.10;;;;;;5057194;28;20536;-79
2024/01/11 08:56:42;;;;;;;44.03;40.37;;;2.50;15.70;;;;;;5075294;28;20175;-79
2024/01/11 08:59:08;;;;;;;46.57;42.37;;;2.50;14.90;;;;;;5058925;28;20458;-78
2024/01/11 09:01:35;;;;;;;44.97;40.83;;;2.40;15.80;;;;;;5070055;28;20421;-80
2024/01/11 09:04:06;;;;;;;45.00;40.87;;;2.40;15.50;;;;;;5063659;28;20444;-79
2024/01/11 09:06:33;;;;;;;45.53;41.47;;;2.20;15.60;;;;;;5060340;28;20441;-79
2024/01/11 09:08:59;;;;;;;44.73;40.70;;;1.70;16.80;;;;;;5055426;28;20426;-79
2024/01/11 09:11:30;;;;;;;44.90;41.17;;;1.70;17.20;;;;;;5059218;28;20430;-80
2024/01/11 09:13:57;;;;;;;45.60;41.57;;;1.80;17.50;;;;;;5041865;28;20203;-81
2024/01/11 09:16:36;;;;;;;45.03;41.10;;;2.10;16.90;;;;;;5064624;28;20851;-82
2024/01/11 09:19:01;;;;;;;45.57;41.57;;;2.40;15.90;;;;;;5044376;28;20492;-81
2024/01/11 09:21:27;;;;;;;47.90;43.60;;;2.70;15.50;;;;;;5066706;28;20468;-77
2024/01/11 09:23:52;;;;;;;42.70;39.00;;;2.90;15.10;;;;;;5087133;28;20222;-77
2024/01/11 09:26:18;;;;;;;45.07;41.07;;;3.10;14.50;;;;;;5071751;28;20185;-80
2024/01/11 09:28:47;;;;;;;44.10;40.30;;;3.10;14.30;;;;;;5082478;28;20195;-82
2024/01/11 09:31:15;;;;;;;46.30;42.20;;;3.10;14.10;;;;;;5078534;28;20504;-82
2024/01/11 09:34:12;;;;;;;46.53;41.90;;;3.10;14.10;;;;;;5060449;28;20429;-82
2024/01/11 09:36:39;;;;;;;47.53;43.37;;;3.10;14.10;;;;;;5041677;28;20438;-80
2024/01/11 09:39:35;;;;;;;43.80;40.10;;;3.10;14.10;;;;;;5041321;28;20500;-82
2024/01/11 09:42:14;;;;;;;46.97;42.67;;;3.20;14.10;;;;;;5040268;28;20450;-81
2024/01/11 09:44:44;;;;;;;45.90;42.10;;;3.10;13.90;;;;;;5050978;28;20422;-80
2024/01/11 09:47:17;;;;;;;42.87;39.30;;;3.20;13.70;;;;;;5035108;28;20451;-80
2024/01/11 09:49:45;;;;;;;46.83;42.53;;;3.30;13.20;;;;;;5037155;28;20468;-80
2024/01/11 09:52:14;;;;;;;44.00;40.27;;;3.30;13.00;;;;;;5058201;28;20413;-81
2024/01/11 09:54:43;;;;;;;49.03;44.57;;;3.30;13.30;;;;;;5078099;28;20417;-81
2024/01/11 09:57:09;;;;;;;54.53;49.83;;;3.40;13.30;;;;;;5057899;28;21026;-80
2024/01/11 09:59:37;;;;;;;50.00;45.57;;;3.30;13.30;;;;;;5038002;28;20227;-81
2024/01/11 10:02:07;;;;;;;48.70;44.10;;;3.30;13.60;;;;;;5055059;28;20407;-80
2024/01/11 10:04:33;;;;;;;47.07;42.97;;;3.10;14.10;;;;;;5037472;28;20947;-78
2024/01/11 10:07:02;;;;;;;48.03;43.87;;;3.00;14.00;;;;;;5036392;28;20472;-79
2024/01/11 10:09:27;;;;;;;47.17;43.07;;;3.10;14.20;;;;;;5059575;28;20250;-80
2024/01/11 10:11:55;;;;;;;48.77;44.57;;;3.10;13.80;;;;;;5043180;28;20426;-81
2024/01/11 10:14:22;;;;;;;51.70;47.00;;;3.10;13.80;;;;;;5026100;28;20195;-80
2024/01/11 10:16:54;;;;;;;46.37;42.40;;;3.00;13.90;;;;;;5060731;28;20425;-80
2024/01/11 10:19:21;;;;;;;45.63;41.77;;;2.80;15.00;;;;;;5042712;28;20465;-80
2024/01/11 10:21:47;;;;;;;45.73;41.50;;;2.50;15.00;;;;;;5058076;28;20418;-79
2024/01/11 10:24:18;;;;;;;50.00;45.70;;;2.40;15.40;;;;;;5040255;28;20438;-79
2024/01/11 10:26:44;;;;;;;47.87;43.37;;;2.40;15.70;;;;;;5060186;28;20467;-79
2024/01/11 10:29:10;;;;;;;45.10;41.30;;;2.20;16.50;;;;;;5061483;23;20490;-80
2024/01/11 10:31:37;;;;;;;48.13;43.73;;;2.40;16.00;;;;;;5056987;28;20175;-80
2024/01/11 10:34:04;;;;;;;45.40;41.57;;;2.60;15.70;;;;;;5062310;28;20468;-81
2024/01/11 10:36:33;;;;;;;47.07;42.73;;;2.60;15.00;;;;;;5056383;28;20460;-81
2024/01/11 10:39:04;;;;;;;50.10;45.80;;;2.60;15.60;;;;;;5068319;28;20493;-83
2024/01/11 10:41:36;;;;;;;50.03;45.70;;;2.60;15.60;;;;;;5045010;28;20430;-81
2024/01/11 10:44:03;;;;;;;47.07;42.93;;;2.50;15.20;;;;;;5053139;28;20473;-81
2024/01/11 10:46:29;;;;;;;48.30;44.30;;;2.70;15.40;;;;;;5078716;28;20417;-81
2024/01/11 10:48:58;;;;;;;49.07;44.77;;;2.80;14.90;;;;;;5059322;28;20964;-81
2024/01/11 10:51:28;;;;;;;48.77;44.27;;;2.70;15.20;;;;;;5068885;28;20417;-79
2024/01/11 10:53:54;;;;;;;50.77;46.10;;;2.70;15.10;;;;;;5069052;28;20449;-79
2024/01/11 10:56:21;;;;;;;49.60;45.20;;;2.70;15.00;;;;;;5051058;28;20533;-81
2024/01/11 10:58:47;;;;;;;48.63;44.40;;;2.70;15.50;;;;;;5048312;28;20513;-82
2024/01/11 11:01:13;;;;;;;47.87;43.80;;;2.90;15.30;;;;;;5048762;28;20413;-82
2024/01/11 11:03:43;;;;;;;46.37;42.17;;;2.90;14.60;;;;;;5057835;28;20422;-82
2024/01/11 11:06:11;;;;;;;48.47;44.00;;;2.90;15.10;;;;;;5054321;28;20418;-82
2024/01/11 11:08:37;;;;;;;47.13;43.23;;;2.90;15.40;;;;;;5070379;28;20561;-81
2024/01/11 11:11:07;;;;;;;48.90;44.53;;;3.10;15.00;;;;;;5060307;28;20425;-81
2024/01/11 11:13:36;;;;;;;45.77;41.87;;;3.30;14.50;;;;;;5053872;28;20440;-78
2024/01/11 11:16:03;;;;;;;48.67;44.37;;;3.50;14.30;;;;;;5055763;28;20426;-81
2024/01/11 11:18:30;;;;;;;48.60;44.40;;;3.70;14.00;;;;;;5061437;28;20478;-81
2024/01/11 11:20:57;;;;;;;46.23;42.13;;;3.80;13.60;;;;;;5053300;28;20452;-83
2024/01/11 11:23:23;;;;;;;45.97;41.73;;;3.80;13.90;;;;;;5068975;28;20460;-82
2024/01/11 11:25:58;;;;;;;46.03;41.93;;;3.80;14.10;;;;;;5051423;28;20438;-81
2024/01/11 11:28:24;;;;;;;49.00;44.70;;;3.80;13.70;;;;;;5051394;28;20428;-82
2024/01/11 11:30:53;;;;;;;45.60;41.70;;;3.70;13.40;;;;;;5049527;28;20433;-82
2024/01/11 11:33:20;;;;;;;47.23;43.00;;;3.70;13.10;;;;;;5054605;28;20435;-82
2024/01/11 11:35:53;;;;;;;47.40;43.30;;;3.80;13.30;;;;;;5071636;28;20434;-82
2024/01/11 11:38:22;;;;;;;47.60;43.60;;;3.90;13.20;;;;;;5064693;28;20880;-81
2024/01/11 11:40:50;;;;;;;47.50;43.33;;;4.00;13.00;;;;;;5053134;28;20427;-81
2024/01/11 11:43:20;;;;;;;46.93;42.70;;;4.10;12.80;;;;;;5069494;28;20437;-81
2024/01/11 11:45:47;;;;;;;48.73;44.60;;;4.10;12.50;;;;;;5074600;28;20453;-83
2024/01/11 11:48:38;;;;;;;48.47;44.27;;;4.10;12.60;;;;;;5074372;28;20769;-81
2024/01/11 11:51:21;;;;;;;45.13;41.13;;;4.10;13.00;;;;;;5053498;28;20453;-81
2024/01/11 11:53:50;;;;;;;47.27;43.17;;;4.10;13.10;;;;;;5056018;28;20773;-82
2024/01/11 11:56:21;;;;;;;48.30;43.57;;;4.10;12.70;;;;;;5054174;28;20461;-82
2024/01/11 11:58:49;;;;;;;47.43;43.20;;;4.20;12.50;;;;;;5061526;28;20472;-82
2024/01/11 12:01:17;;;;;;;47.10;42.90;;;4.30;12.20;;;;;;5066664;28;20433;-79
2024/01/11 12:03:48;;;;;;;50.20;45.37;;;4.40;12.10;;;;;;5069382;28;20471;-79
2024/01/11 12:06:15;;;;;;;47.67;43.07;;;4.40;12.40;;;;;;5087665;28;20418;-78
2024/01/11 12:08:44;;;;;;;47.13;43.03;;;4.10;13.40;;;;;;5068108;28;20441;-79
2024/01/11 12:11:19;;;;;;;47.33;42.97;;;4.10;12.90;;;;;;5085960;28;20437;-78
2024/01/11 12:13:46;;;;;;;46.87;42.67;;;3.90;13.30;;;;;;5064789;28;20435;-80
2024/01/11 12:16:12;;;;;;;47.80;43.67;;;3.60;14.10;;;;;;5090950;28;20417;-81
2024/01/11 12:18:37;;;;;;;49.40;44.50;;;3.60;14.30;;;;;;5064496;28;20492;-77
2024/01/11 12:21:03;;;;;;;47.23;42.93;;;3.40;14.50;;;;;;5055368;28;20247;-78
2024/01/11 12:23:34;;;;;;;48.20;43.80;;;3.50;14.30;;;;;;5087588;28;20236;-79
2024/01/11 12:26:02;;;;;;;48.13;43.90;;;3.70;13.80;;;;;;5061092;28;20533;-77
2024/01/11 12:28:28;;;;;;;49.70;45.30;;;3.70;14.20;;;;;;5064268;28;20551;-78
2024/01/11 12:30:54;;;;;;;48.00;43.70;;;3.80;13.80;;;;;;5075994;28;20471;-81
2024/01/11 12:33:20;;;;;;;46.63;42.50;;;4.00;13.70;;;;;;5050587;28;20187;-80
2024/01/11 12:35:46;;;;;;;46.97;42.57;;;4.10;13.10;;;;;;5054828;28;20441;-79
2024/01/11 12:38:12;;;;;;;47.87;43.70;;;4.30;12.70;;;;;;5052773;28;20462;-80
2024/01/11 12:40:38;;;;;;;48.30;43.70;;;4.30;12.60;;;;;;5048184;28;20518;-81